sensor_id;sensor_type;location;lat;lon;timestamp;P1;durP1;ratioP1;P2;durP2;ratioP2
32912;SDS011;19266;45.580;-122.680;2022-08-19T00:02:03;19.67;;;7.58;;
32912;SDS011;19266;45.580;-122.680;2022-08-19T00:04:33;13.93;;;7.37;;
32912;SDS011;19266;45.580;-122.680;2022-08-19T00:07:04;11.90;;;6.50;;
32912;SDS011;19266;45.580;-122.680;2022-08-19T00:09:34;9.53;;;6.90;;
32912;SDS011;19266;45.580;-122.680;2022-08-19T00:12:03;11.35;;;7.40;;
32912;SDS011;19266;45.580;-122.680;2022-08-19T00:14:33;12.23;;;7.33;;
32912;SDS011;19266;45.580;-122.680;2022-08-19T00:17:02;22.65;;;7.62;;
32912;SDS011;19266;45.580;-122.680;2022-08-19T00:19:31;12.73;;;7.47;;
32912;SDS011;19266;45.580;-122.680;2022-08-19T00:22:00;11.43;;;7.08;;
32912;SDS011;19266;45.580;-122.680;2022-08-19T00:24:30;12.85;;;7.20;;
32912;SDS011;19266;45.580;-122.680;2022-08-19T00:26:59;13.75;;;7.53;;
32912;SDS011;19266;45.580;-122.680;2022-08-19T00:29:29;10.25;;;7.15;;
32912;SDS011;19266;45.580;-122.680;2022-08-19T00:31:58;8.48;;;6.65;;
32912;SDS011;19266;45.580;-122.680;2022-08-19T00:34:27;13.83;;;7.00;;
32912;SDS011;19266;45.580;-122.680;2022-08-19T00:36:57;10.82;;;6.85;;
32912;SDS011;19266;45.580;-122.680;2022-08-19T00:39:27;13.30;;;6.85;;
32912;SDS011;19266;45.580;-122.680;2022-08-19T00:41:56;10.25;;;6.85;;
32912;SDS011;19266;45.580;-122.680;2022-08-19T00:44:26;8.98;;;6.45;;
32912;SDS011;19266;45.580;-122.680;2022-08-19T00:46:56;11.83;;;7.20;;
32912;SDS011;19266;45.580;-122.680;2022-08-19T00:49:34;9.88;;;6.45;;
32912;SDS011;19266;45.580;-122.680;2022-08-19T00:52:38;9.58;;;6.25;;
32912;SDS011;19266;45.580;-122.680;2022-08-19T00:54:39;7.10;;;6.05;;
32912;SDS011;19266;45.580;-122.680;2022-08-19T00:57:10;8.73;;;5.87;;
32912;SDS011;19266;45.580;-122.680;2022-08-19T00:59:40;9.48;;;5.80;;
32912;SDS011;19266;45.580;-122.680;2022-08-19T01:02:10;9.73;;;5.90;;
32912;SDS011;19266;45.580;-122.680;2022-08-19T01:04:39;8.98;;;5.80;;
32912;SDS011;19266;45.580;-122.680;2022-08-19T01:07:08;10.10;;;5.72;;
32912;SDS011;19266;45.580;-122.680;2022-08-19T01:09:37;12.18;;;6.28;;
32912;SDS011;19266;45.580;-122.680;2022-08-19T01:12:06;11.25;;;6.37;;
32912;SDS011;19266;45.580;-122.680;2022-08-19T01:14:36;12.23;;;6.50;;
32912;SDS011;19266;45.580;-122.680;2022-08-19T01:17:07;15.85;;;7.15;;
32912;SDS011;19266;45.580;-122.680;2022-08-19T01:19:37;10.65;;;6.85;;
32912;SDS011;19266;45.580;-122.680;2022-08-19T01:22:15;14.07;;;6.85;;
32912;SDS011;19266;45.580;-122.680;2022-08-19T01:24:42;10.53;;;6.75;;
32912;SDS011;19266;45.580;-122.680;2022-08-19T01:27:12;11.90;;;6.65;;
32912;SDS011;19266;45.580;-122.680;2022-08-19T01:29:41;13.45;;;7.22;;
32912;SDS011;19266;45.580;-122.680;2022-08-19T01:32:14;9.18;;;6.75;;
32912;SDS011;19266;45.580;-122.680;2022-08-19T01:34:43;12.03;;;6.80;;
32912;SDS011;19266;45.580;-122.680;2022-08-19T01:37:14;14.50;;;6.75;;
32912;SDS011;19266;45.580;-122.680;2022-08-19T01:39:44;12.58;;;6.78;;
32912;SDS011;19266;45.580;-122.680;2022-08-19T01:42:13;15.55;;;7.17;;
32912;SDS011;19266;45.580;-122.680;2022-08-19T01:44:42;16.20;;;7.22;;
32912;SDS011;19266;45.580;-122.680;2022-08-19T01:47:11;15.80;;;6.60;;
32912;SDS011;19266;45.580;-122.680;2022-08-19T01:49:40;16.23;;;7.00;;
32912;SDS011;19266;45.580;-122.680;2022-08-19T01:52:09;11.75;;;6.90;;
32912;SDS011;19266;45.580;-122.680;2022-08-19T01:54:38;10.00;;;6.87;;
32912;SDS011;19266;45.580;-122.680;2022-08-19T01:57:08;12.15;;;6.70;;
32912;SDS011;19266;45.580;-122.680;2022-08-19T01:59:38;12.18;;;6.53;;
32912;SDS011;19266;45.580;-122.680;2022-08-19T02:02:08;10.95;;;6.85;;
32912;SDS011;19266;45.580;-122.680;2022-08-19T02:04:37;11.22;;;6.58;;
32912;SDS011;19266;45.580;-122.680;2022-08-19T02:07:07;18.92;;;7.20;;
32912;SDS011;19266;45.580;-122.680;2022-08-19T02:09:36;15.72;;;7.17;;
32912;SDS011;19266;45.580;-122.680;2022-08-19T02:12:06;12.40;;;6.85;;
32912;SDS011;19266;45.580;-122.680;2022-08-19T02:14:36;12.63;;;7.10;;
32912;SDS011;19266;45.580;-122.680;2022-08-19T02:17:05;9.98;;;6.03;;
32912;SDS011;19266;45.580;-122.680;2022-08-19T02:19:34;11.50;;;6.22;;
32912;SDS011;19266;45.580;-122.680;2022-08-19T02:22:03;10.50;;;5.70;;
32912;SDS011;19266;45.580;-122.680;2022-08-19T02:24:33;36.73;;;7.42;;
32912;SDS011;19266;45.580;-122.680;2022-08-19T02:27:02;22.65;;;6.78;;
32912;SDS011;19266;45.580;-122.680;2022-08-19T02:29:32;11.73;;;6.33;;
32912;SDS011;19266;45.580;-122.680;2022-08-19T02:32:01;11.90;;;6.40;;
32912;SDS011;19266;45.580;-122.680;2022-08-19T02:34:31;15.98;;;6.85;;
32912;SDS011;19266;45.580;-122.680;2022-08-19T02:37:00;12.85;;;6.87;;
32912;SDS011;19266;45.580;-122.680;2022-08-19T02:39:29;10.75;;;6.42;;
32912;SDS011;19266;45.580;-122.680;2022-08-19T02:41:58;11.88;;;6.80;;
32912;SDS011;19266;45.580;-122.680;2022-08-19T02:44:28;11.33;;;7.40;;
32912;SDS011;19266;45.580;-122.680;2022-08-19T02:46:57;10.43;;;6.90;;
32912;SDS011;19266;45.580;-122.680;2022-08-19T02:49:26;11.40;;;7.80;;
32912;SDS011;19266;45.580;-122.680;2022-08-19T02:51:55;12.45;;;7.20;;
32912;SDS011;19266;45.580;-122.680;2022-08-19T02:54:24;12.95;;;7.20;;
32912;SDS011;19266;45.580;-122.680;2022-08-19T02:56:54;12.75;;;7.20;;
32912;SDS011;19266;45.580;-122.680;2022-08-19T02:59:24;12.35;;;6.90;;
32912;SDS011;19266;45.580;-122.680;2022-08-19T03:01:54;15.85;;;7.55;;
32912;SDS011;19266;45.580;-122.680;2022-08-19T03:04:23;14.10;;;7.53;;
32912;SDS011;19266;45.580;-122.680;2022-08-19T03:06:52;10.72;;;7.45;;
32912;SDS011;19266;45.580;-122.680;2022-08-19T03:09:21;16.85;;;7.72;;
32912;SDS011;19266;45.580;-122.680;2022-08-19T03:11:50;12.60;;;7.90;;
32912;SDS011;19266;45.580;-122.680;2022-08-19T03:14:19;14.40;;;7.87;;
32912;SDS011;19266;45.580;-122.680;2022-08-19T03:16:49;33.70;;;12.47;;
32912;SDS011;19266;45.580;-122.680;2022-08-19T03:19:19;18.95;;;8.43;;
32912;SDS011;19266;45.580;-122.680;2022-08-19T03:21:50;15.85;;;8.38;;
32912;SDS011;19266;45.580;-122.680;2022-08-19T03:24:19;26.65;;;8.50;;
32912;SDS011;19266;45.580;-122.680;2022-08-19T03:26:54;17.02;;;8.18;;
32912;SDS011;19266;45.580;-122.680;2022-08-19T03:29:19;12.78;;;7.85;;
32912;SDS011;19266;45.580;-122.680;2022-08-19T03:31:48;13.53;;;8.20;;
32912;SDS011;19266;45.580;-122.680;2022-08-19T03:34:20;13.70;;;8.50;;
32912;SDS011;19266;45.580;-122.680;2022-08-19T03:36:49;14.65;;;8.53;;
32912;SDS011;19266;45.580;-122.680;2022-08-19T03:39:18;16.48;;;8.48;;
32912;SDS011;19266;45.580;-122.680;2022-08-19T03:41:48;13.38;;;7.83;;
32912;SDS011;19266;45.580;-122.680;2022-08-19T03:44:18;14.47;;;8.00;;
32912;SDS011;19266;45.580;-122.680;2022-08-19T03:46:50;10.70;;;8.00;;
32912;SDS011;19266;45.580;-122.680;2022-08-19T03:49:20;13.62;;;8.28;;
32912;SDS011;19266;45.580;-122.680;2022-08-19T03:51:49;12.82;;;8.70;;
32912;SDS011;19266;45.580;-122.680;2022-08-19T03:54:19;13.90;;;8.55;;
32912;SDS011;19266;45.580;-122.680;2022-08-19T03:56:49;13.65;;;8.30;;
32912;SDS011;19266;45.580;-122.680;2022-08-19T03:59:21;12.60;;;8.08;;
32912;SDS011;19266;45.580;-122.680;2022-08-19T04:01:48;14.65;;;8.48;;
32912;SDS011;19266;45.580;-122.680;2022-08-19T04:04:18;40.00;;;9.85;;
32912;SDS011;19266;45.580;-122.680;2022-08-19T04:06:47;21.85;;;9.35;;
32912;SDS011;19266;45.580;-122.680;2022-08-19T04:09:16;20.88;;;9.18;;
32912;SDS011;19266;45.580;-122.680;2022-08-19T04:11:47;15.85;;;9.50;;
32912;SDS011;19266;45.580;-122.680;2022-08-19T04:14:18;24.18;;;9.13;;
32912;SDS011;19266;45.580;-122.680;2022-08-19T04:16:48;19.70;;;9.50;;
32912;SDS011;19266;45.580;-122.680;2022-08-19T04:19:17;20.62;;;9.73;;
32912;SDS011;19266;45.580;-122.680;2022-08-19T04:21:48;31.33;;;11.20;;
32912;SDS011;19266;45.580;-122.680;2022-08-19T04:24:18;39.78;;;11.95;;
32912;SDS011;19266;45.580;-122.680;2022-08-19T04:26:47;20.12;;;10.78;;
32912;SDS011;19266;45.580;-122.680;2022-08-19T04:29:18;21.42;;;10.58;;
32912;SDS011;19266;45.580;-122.680;2022-08-19T04:31:48;22.10;;;10.08;;
32912;SDS011;19266;45.580;-122.680;2022-08-19T04:34:19;19.10;;;9.75;;
32912;SDS011;19266;45.580;-122.680;2022-08-19T04:36:52;21.33;;;9.70;;
32912;SDS011;19266;45.580;-122.680;2022-08-19T04:39:22;16.70;;;9.05;;
32912;SDS011;19266;45.580;-122.680;2022-08-19T04:41:53;15.48;;;8.93;;
32912;SDS011;19266;45.580;-122.680;2022-08-19T04:44:38;17.07;;;9.33;;
32912;SDS011;19266;45.580;-122.680;2022-08-19T04:47:09;13.90;;;8.68;;
32912;SDS011;19266;45.580;-122.680;2022-08-19T04:49:38;15.83;;;9.00;;
32912;SDS011;19266;45.580;-122.680;2022-08-19T04:52:07;13.75;;;9.00;;
32912;SDS011;19266;45.580;-122.680;2022-08-19T04:54:36;14.03;;;8.88;;
32912;SDS011;19266;45.580;-122.680;2022-08-19T04:57:07;19.80;;;9.10;;
32912;SDS011;19266;45.580;-122.680;2022-08-19T04:59:36;14.30;;;9.20;;
32912;SDS011;19266;45.580;-122.680;2022-08-19T05:02:06;14.85;;;8.80;;
32912;SDS011;19266;45.580;-122.680;2022-08-19T05:04:36;13.30;;;9.25;;
32912;SDS011;19266;45.580;-122.680;2022-08-19T05:07:07;14.43;;;9.48;;
32912;SDS011;19266;45.580;-122.680;2022-08-19T05:09:37;13.30;;;9.28;;
32912;SDS011;19266;45.580;-122.680;2022-08-19T05:12:06;17.05;;;9.20;;
32912;SDS011;19266;45.580;-122.680;2022-08-19T05:14:35;15.10;;;9.33;;
32912;SDS011;19266;45.580;-122.680;2022-08-19T05:17:04;18.82;;;9.65;;
32912;SDS011;19266;45.580;-122.680;2022-08-19T05:19:34;14.90;;;8.90;;
32912;SDS011;19266;45.580;-122.680;2022-08-19T05:22:20;16.05;;;8.75;;
32912;SDS011;19266;45.580;-122.680;2022-08-19T05:25:05;17.75;;;9.55;;
32912;SDS011;19266;45.580;-122.680;2022-08-19T05:27:35;22.62;;;9.98;;
32912;SDS011;19266;45.580;-122.680;2022-08-19T05:30:04;16.48;;;10.10;;
32912;SDS011;19266;45.580;-122.680;2022-08-19T05:32:34;17.60;;;9.63;;
32912;SDS011;19266;45.580;-122.680;2022-08-19T05:35:03;17.02;;;9.25;;
32912;SDS011;19266;45.580;-122.680;2022-08-19T05:37:32;19.05;;;9.83;;
32912;SDS011;19266;45.580;-122.680;2022-08-19T05:40:01;15.72;;;9.48;;
32912;SDS011;19266;45.580;-122.680;2022-08-19T05:42:31;16.48;;;9.65;;
32912;SDS011;19266;45.580;-122.680;2022-08-19T05:45:00;16.90;;;9.48;;
32912;SDS011;19266;45.580;-122.680;2022-08-19T05:47:29;14.83;;;9.25;;
32912;SDS011;19266;45.580;-122.680;2022-08-19T05:49:58;17.45;;;10.00;;
32912;SDS011;19266;45.580;-122.680;2022-08-19T05:52:29;15.10;;;9.63;;
32912;SDS011;19266;45.580;-122.680;2022-08-19T05:54:58;17.32;;;9.60;;
32912;SDS011;19266;45.580;-122.680;2022-08-19T05:57:27;14.65;;;9.50;;
32912;SDS011;19266;45.580;-122.680;2022-08-19T05:59:56;151.93;;;14.83;;
32912;SDS011;19266;45.580;-122.680;2022-08-19T06:02:27;112.47;;;14.40;;
32912;SDS011;19266;45.580;-122.680;2022-08-19T06:04:56;49.00;;;11.60;;
32912;SDS011;19266;45.580;-122.680;2022-08-19T06:07:25;40.52;;;10.72;;
32912;SDS011;19266;45.580;-122.680;2022-08-19T06:09:54;24.00;;;10.45;;
32912;SDS011;19266;45.580;-122.680;2022-08-19T06:12:24;24.57;;;10.60;;
32912;SDS011;19266;45.580;-122.680;2022-08-19T06:14:54;18.23;;;10.20;;
32912;SDS011;19266;45.580;-122.680;2022-08-19T06:17:23;18.57;;;10.13;;
32912;SDS011;19266;45.580;-122.680;2022-08-19T06:19:53;18.65;;;9.95;;
32912;SDS011;19266;45.580;-122.680;2022-08-19T06:22:22;18.80;;;10.85;;
32912;SDS011;19266;45.580;-122.680;2022-08-19T06:24:51;13.10;;;10.30;;
32912;SDS011;19266;45.580;-122.680;2022-08-19T06:27:21;15.15;;;10.65;;
32912;SDS011;19266;45.580;-122.680;2022-08-19T06:29:50;13.58;;;10.38;;
32912;SDS011;19266;45.580;-122.680;2022-08-19T06:32:19;15.68;;;10.98;;
32912;SDS011;19266;45.580;-122.680;2022-08-19T06:34:48;14.45;;;10.48;;
32912;SDS011;19266;45.580;-122.680;2022-08-19T06:37:18;16.32;;;10.45;;
32912;SDS011;19266;45.580;-122.680;2022-08-19T06:39:48;16.97;;;10.13;;
32912;SDS011;19266;45.580;-122.680;2022-08-19T06:42:17;14.83;;;10.93;;
32912;SDS011;19266;45.580;-122.680;2022-08-19T06:44:47;18.35;;;10.32;;
32912;SDS011;19266;45.580;-122.680;2022-08-19T06:47:18;17.07;;;10.55;;
32912;SDS011;19266;45.580;-122.680;2022-08-19T06:49:47;14.13;;;11.30;;
32912;SDS011;19266;45.580;-122.680;2022-08-19T06:52:16;19.60;;;11.70;;
32912;SDS011;19266;45.580;-122.680;2022-08-19T06:54:45;26.35;;;10.90;;
32912;SDS011;19266;45.580;-122.680;2022-08-19T06:57:14;17.15;;;10.80;;
32912;SDS011;19266;45.580;-122.680;2022-08-19T06:59:43;18.60;;;10.90;;
32912;SDS011;19266;45.580;-122.680;2022-08-19T07:02:12;17.48;;;10.88;;
32912;SDS011;19266;45.580;-122.680;2022-08-19T07:04:41;15.18;;;10.32;;
32912;SDS011;19266;45.580;-122.680;2022-08-19T07:07:11;16.75;;;10.78;;
32912;SDS011;19266;45.580;-122.680;2022-08-19T07:09:41;18.77;;;10.13;;
32912;SDS011;19266;45.580;-122.680;2022-08-19T07:12:11;18.45;;;10.78;;
32912;SDS011;19266;45.580;-122.680;2022-08-19T07:14:42;17.37;;;10.78;;
32912;SDS011;19266;45.580;-122.680;2022-08-19T07:17:13;15.90;;;10.10;;
32912;SDS011;19266;45.580;-122.680;2022-08-19T07:19:42;17.65;;;10.70;;
32912;SDS011;19266;45.580;-122.680;2022-08-19T07:22:11;18.40;;;10.63;;
32912;SDS011;19266;45.580;-122.680;2022-08-19T07:24:40;20.97;;;10.93;;
32912;SDS011;19266;45.580;-122.680;2022-08-19T07:27:09;17.62;;;10.90;;
32912;SDS011;19266;45.580;-122.680;2022-08-19T07:29:38;15.50;;;10.25;;
32912;SDS011;19266;45.580;-122.680;2022-08-19T07:32:07;47.85;;;12.82;;
32912;SDS011;19266;45.580;-122.680;2022-08-19T07:34:38;37.08;;;11.53;;
32912;SDS011;19266;45.580;-122.680;2022-08-19T07:37:07;58.35;;;12.20;;
32912;SDS011;19266;45.580;-122.680;2022-08-19T07:39:36;37.50;;;11.03;;
32912;SDS011;19266;45.580;-122.680;2022-08-19T07:42:07;31.20;;;11.60;;
32912;SDS011;19266;45.580;-122.680;2022-08-19T07:44:36;27.65;;;11.40;;
32912;SDS011;19266;45.580;-122.680;2022-08-19T07:47:05;29.57;;;11.50;;
32912;SDS011;19266;45.580;-122.680;2022-08-19T07:49:35;19.70;;;11.15;;
32912;SDS011;19266;45.580;-122.680;2022-08-19T07:52:05;19.73;;;11.20;;
32912;SDS011;19266;45.580;-122.680;2022-08-19T07:54:35;16.85;;;10.50;;
32912;SDS011;19266;45.580;-122.680;2022-08-19T07:57:04;19.15;;;10.60;;
32912;SDS011;19266;45.580;-122.680;2022-08-19T07:59:34;18.90;;;10.70;;
32912;SDS011;19266;45.580;-122.680;2022-08-19T08:02:04;16.90;;;10.98;;
32912;SDS011;19266;45.580;-122.680;2022-08-19T08:04:33;19.05;;;10.80;;
32912;SDS011;19266;45.580;-122.680;2022-08-19T08:07:20;18.05;;;10.72;;
32912;SDS011;19266;45.580;-122.680;2022-08-19T08:10:07;18.05;;;10.35;;
32912;SDS011;19266;45.580;-122.680;2022-08-19T08:12:37;18.12;;;10.88;;
32912;SDS011;19266;45.580;-122.680;2022-08-19T08:15:10;16.65;;;10.78;;
32912;SDS011;19266;45.580;-122.680;2022-08-19T08:17:38;15.68;;;10.63;;
32912;SDS011;19266;45.580;-122.680;2022-08-19T08:20:07;16.67;;;10.72;;
32912;SDS011;19266;45.580;-122.680;2022-08-19T08:22:37;19.05;;;10.78;;
32912;SDS011;19266;45.580;-122.680;2022-08-19T08:25:26;17.57;;;11.48;;
32912;SDS011;19266;45.580;-122.680;2022-08-19T08:27:55;16.35;;;10.93;;
32912;SDS011;19266;45.580;-122.680;2022-08-19T08:30:26;17.07;;;11.12;;
32912;SDS011;19266;45.580;-122.680;2022-08-19T08:32:56;19.60;;;10.93;;
32912;SDS011;19266;45.580;-122.680;2022-08-19T08:35:25;17.75;;;11.20;;
32912;SDS011;19266;45.580;-122.680;2022-08-19T08:37:54;17.42;;;11.33;;
32912;SDS011;19266;45.580;-122.680;2022-08-19T08:40:27;18.62;;;11.18;;
32912;SDS011;19266;45.580;-122.680;2022-08-19T08:42:58;18.42;;;11.83;;
32912;SDS011;19266;45.580;-122.680;2022-08-19T08:45:28;16.42;;;10.82;;
32912;SDS011;19266;45.580;-122.680;2022-08-19T08:48:00;17.05;;;11.20;;
32912;SDS011;19266;45.580;-122.680;2022-08-19T08:50:34;20.57;;;11.30;;
32912;SDS011;19266;45.580;-122.680;2022-08-19T08:52:59;17.15;;;11.03;;
32912;SDS011;19266;45.580;-122.680;2022-08-19T08:55:28;16.17;;;11.40;;
32912;SDS011;19266;45.580;-122.680;2022-08-19T09:00:35;19.67;;;11.28;;
32912;SDS011;19266;45.580;-122.680;2022-08-19T09:02:58;18.40;;;11.90;;
32912;SDS011;19266;45.580;-122.680;2022-08-19T09:05:41;19.77;;;11.60;;
32912;SDS011;19266;45.580;-122.680;2022-08-19T09:08:10;15.63;;;11.38;;
32912;SDS011;19266;45.580;-122.680;2022-08-19T09:10:40;18.48;;;10.82;;
32912;SDS011;19266;45.580;-122.680;2022-08-19T09:15:40;15.75;;;10.20;;
32912;SDS011;19266;45.580;-122.680;2022-08-19T09:18:09;15.53;;;10.08;;
32912;SDS011;19266;45.580;-122.680;2022-08-19T09:20:38;17.42;;;10.13;;
32912;SDS011;19266;45.580;-122.680;2022-08-19T09:23:07;16.97;;;10.30;;
32912;SDS011;19266;45.580;-122.680;2022-08-19T09:25:38;16.95;;;9.55;;
32912;SDS011;19266;45.580;-122.680;2022-08-19T09:28:07;15.25;;;8.65;;
32912;SDS011;19266;45.580;-122.680;2022-08-19T09:30:40;12.15;;;8.60;;
32912;SDS011;19266;45.580;-122.680;2022-08-19T09:33:09;12.07;;;7.87;;
32912;SDS011;19266;45.580;-122.680;2022-08-19T09:35:38;10.65;;;7.20;;
32912;SDS011;19266;45.580;-122.680;2022-08-19T09:38:08;12.07;;;7.15;;
32912;SDS011;19266;45.580;-122.680;2022-08-19T09:40:37;13.00;;;7.20;;
32912;SDS011;19266;45.580;-122.680;2022-08-19T09:43:06;10.98;;;6.90;;
32912;SDS011;19266;45.580;-122.680;2022-08-19T09:45:35;14.98;;;6.87;;
32912;SDS011;19266;45.580;-122.680;2022-08-19T09:48:05;12.20;;;6.85;;
32912;SDS011;19266;45.580;-122.680;2022-08-19T09:50:34;11.35;;;6.78;;
32912;SDS011;19266;45.580;-122.680;2022-08-19T09:53:04;12.37;;;6.80;;
32912;SDS011;19266;45.580;-122.680;2022-08-19T09:55:35;12.18;;;6.22;;
32912;SDS011;19266;45.580;-122.680;2022-08-19T09:58:04;11.60;;;6.33;;
32912;SDS011;19266;45.580;-122.680;2022-08-19T10:00:33;11.78;;;5.92;;
32912;SDS011;19266;45.580;-122.680;2022-08-19T10:03:02;10.68;;;6.08;;
32912;SDS011;19266;45.580;-122.680;2022-08-19T10:05:31;11.30;;;6.20;;
32912;SDS011;19266;45.580;-122.680;2022-08-19T10:08:11;13.28;;;5.85;;
32912;SDS011;19266;45.580;-122.680;2022-08-19T10:10:43;8.83;;;5.35;;
32912;SDS011;19266;45.580;-122.680;2022-08-19T10:13:14;10.55;;;5.60;;
32912;SDS011;19266;45.580;-122.680;2022-08-19T10:15:43;14.38;;;5.85;;
32912;SDS011;19266;45.580;-122.680;2022-08-19T10:18:12;13.00;;;6.08;;
32912;SDS011;19266;45.580;-122.680;2022-08-19T10:20:41;13.93;;;5.90;;
32912;SDS011;19266;45.580;-122.680;2022-08-19T10:23:11;13.22;;;5.33;;
32912;SDS011;19266;45.580;-122.680;2022-08-19T10:25:40;12.33;;;5.85;;
32912;SDS011;19266;45.580;-122.680;2022-08-19T10:28:10;10.85;;;5.50;;
32912;SDS011;19266;45.580;-122.680;2022-08-19T10:30:40;11.80;;;5.55;;
32912;SDS011;19266;45.580;-122.680;2022-08-19T10:33:09;9.30;;;4.87;;
32912;SDS011;19266;45.580;-122.680;2022-08-19T10:35:39;12.23;;;5.80;;
32912;SDS011;19266;45.580;-122.680;2022-08-19T10:38:08;9.30;;;4.97;;
32912;SDS011;19266;45.580;-122.680;2022-08-19T10:40:37;11.00;;;5.30;;
32912;SDS011;19266;45.580;-122.680;2022-08-19T10:43:06;13.93;;;5.33;;
32912;SDS011;19266;45.580;-122.680;2022-08-19T10:45:35;9.63;;;5.15;;
32912;SDS011;19266;45.580;-122.680;2022-08-19T10:48:04;9.58;;;5.35;;
32912;SDS011;19266;45.580;-122.680;2022-08-19T10:50:33;10.48;;;5.50;;
32912;SDS011;19266;45.580;-122.680;2022-08-19T10:53:20;10.60;;;5.50;;
32912;SDS011;19266;45.580;-122.680;2022-08-19T10:55:50;9.65;;;5.05;;
32912;SDS011;19266;45.580;-122.680;2022-08-19T10:58:37;11.60;;;5.35;;
32912;SDS011;19266;45.580;-122.680;2022-08-19T11:01:08;9.88;;;5.53;;
32912;SDS011;19266;45.580;-122.680;2022-08-19T11:03:55;10.40;;;5.42;;
32912;SDS011;19266;45.580;-122.680;2022-08-19T11:06:25;11.38;;;5.17;;
32912;SDS011;19266;45.580;-122.680;2022-08-19T11:08:54;11.68;;;5.22;;
32912;SDS011;19266;45.580;-122.680;2022-08-19T11:11:23;10.23;;;5.50;;
32912;SDS011;19266;45.580;-122.680;2022-08-19T11:13:52;7.53;;;5.00;;
32912;SDS011;19266;45.580;-122.680;2022-08-19T11:16:22;9.00;;;5.28;;
32912;SDS011;19266;45.580;-122.680;2022-08-19T11:18:53;9.08;;;5.30;;
32912;SDS011;19266;45.580;-122.680;2022-08-19T11:21:25;11.48;;;5.10;;
32912;SDS011;19266;45.580;-122.680;2022-08-19T11:23:56;8.48;;;4.87;;
32912;SDS011;19266;45.580;-122.680;2022-08-19T11:26:25;9.20;;;5.10;;
32912;SDS011;19266;45.580;-122.680;2022-08-19T11:28:54;9.58;;;4.87;;
32912;SDS011;19266;45.580;-122.680;2022-08-19T11:31:24;9.90;;;4.67;;
32912;SDS011;19266;45.580;-122.680;2022-08-19T11:33:55;7.60;;;5.00;;
32912;SDS011;19266;45.580;-122.680;2022-08-19T11:36:24;8.33;;;5.08;;
32912;SDS011;19266;45.580;-122.680;2022-08-19T11:38:54;7.10;;;4.80;;
32912;SDS011;19266;45.580;-122.680;2022-08-19T11:41:23;6.87;;;4.75;;
32912;SDS011;19266;45.580;-122.680;2022-08-19T11:43:53;9.70;;;5.05;;
32912;SDS011;19266;45.580;-122.680;2022-08-19T11:46:23;8.40;;;5.30;;
32912;SDS011;19266;45.580;-122.680;2022-08-19T11:48:52;7.95;;;4.97;;
32912;SDS011;19266;45.580;-122.680;2022-08-19T11:51:22;7.72;;;5.10;;
32912;SDS011;19266;45.580;-122.680;2022-08-19T11:53:54;8.15;;;4.70;;
32912;SDS011;19266;45.580;-122.680;2022-08-19T11:56:24;7.90;;;5.28;;
32912;SDS011;19266;45.580;-122.680;2022-08-19T11:58:53;8.58;;;5.35;;
32912;SDS011;19266;45.580;-122.680;2022-08-19T12:01:24;6.55;;;5.17;;
32912;SDS011;19266;45.580;-122.680;2022-08-19T12:03:54;7.37;;;5.10;;
32912;SDS011;19266;45.580;-122.680;2022-08-19T12:06:27;7.25;;;4.78;;
32912;SDS011;19266;45.580;-122.680;2022-08-19T12:08:57;7.30;;;5.10;;
32912;SDS011;19266;45.580;-122.680;2022-08-19T12:11:27;10.65;;;5.30;;
32912;SDS011;19266;45.580;-122.680;2022-08-19T12:13:56;10.35;;;4.92;;
32912;SDS011;19266;45.580;-122.680;2022-08-19T12:16:27;8.13;;;5.17;;
32912;SDS011;19266;45.580;-122.680;2022-08-19T12:18:55;6.97;;;4.75;;
32912;SDS011;19266;45.580;-122.680;2022-08-19T12:21:26;7.40;;;4.85;;
32912;SDS011;19266;45.580;-122.680;2022-08-19T12:23:59;5.55;;;4.50;;
32912;SDS011;19266;45.580;-122.680;2022-08-19T12:26:28;5.62;;;4.62;;
32912;SDS011;19266;45.580;-122.680;2022-08-19T12:28:58;7.83;;;4.53;;
32912;SDS011;19266;45.580;-122.680;2022-08-19T12:31:28;6.92;;;4.05;;
32912;SDS011;19266;45.580;-122.680;2022-08-19T12:33:57;7.80;;;4.12;;
32912;SDS011;19266;45.580;-122.680;2022-08-19T12:36:26;7.17;;;4.42;;
32912;SDS011;19266;45.580;-122.680;2022-08-19T12:38:57;8.08;;;4.40;;
32912;SDS011;19266;45.580;-122.680;2022-08-19T12:41:27;5.40;;;3.98;;
32912;SDS011;19266;45.580;-122.680;2022-08-19T12:43:56;4.35;;;3.65;;
32912;SDS011;19266;45.580;-122.680;2022-08-19T12:46:25;8.20;;;3.87;;
32912;SDS011;19266;45.580;-122.680;2022-08-19T12:48:54;7.05;;;3.62;;
32912;SDS011;19266;45.580;-122.680;2022-08-19T12:51:25;5.17;;;3.52;;
32912;SDS011;19266;45.580;-122.680;2022-08-19T12:53:54;4.62;;;3.58;;
32912;SDS011;19266;45.580;-122.680;2022-08-19T12:56:23;5.97;;;3.77;;
32912;SDS011;19266;45.580;-122.680;2022-08-19T12:59:04;4.20;;;3.45;;
32912;SDS011;19266;45.580;-122.680;2022-08-19T13:01:35;4.10;;;3.45;;
32912;SDS011;19266;45.580;-122.680;2022-08-19T13:04:04;4.15;;;3.45;;
32912;SDS011;19266;45.580;-122.680;2022-08-19T13:06:33;5.47;;;3.45;;
32912;SDS011;19266;45.580;-122.680;2022-08-19T13:09:03;6.05;;;3.80;;
32912;SDS011;19266;45.580;-122.680;2022-08-19T13:11:32;4.75;;;3.50;;
32912;SDS011;19266;45.580;-122.680;2022-08-19T13:14:02;5.55;;;3.20;;
32912;SDS011;19266;45.580;-122.680;2022-08-19T13:16:31;4.33;;;2.90;;
32912;SDS011;19266;45.580;-122.680;2022-08-19T13:19:00;7.33;;;2.90;;
32912;SDS011;19266;45.580;-122.680;2022-08-19T13:21:31;4.95;;;2.90;;
32912;SDS011;19266;45.580;-122.680;2022-08-19T13:24:00;2.83;;;2.52;;
32912;SDS011;19266;45.580;-122.680;2022-08-19T13:26:29;6.42;;;2.90;;
32912;SDS011;19266;45.580;-122.680;2022-08-19T13:28:58;4.80;;;2.72;;
32912;SDS011;19266;45.580;-122.680;2022-08-19T13:31:45;5.75;;;2.90;;
32912;SDS011;19266;45.580;-122.680;2022-08-19T13:34:33;6.37;;;2.72;;
32912;SDS011;19266;45.580;-122.680;2022-08-19T13:36:58;4.47;;;2.60;;
32912;SDS011;19266;45.580;-122.680;2022-08-19T13:39:27;4.83;;;2.75;;
32912;SDS011;19266;45.580;-122.680;2022-08-19T13:41:59;4.60;;;2.80;;
32912;SDS011;19266;45.580;-122.680;2022-08-19T13:44:28;5.22;;;2.90;;
32912;SDS011;19266;45.580;-122.680;2022-08-19T13:47:01;3.02;;;2.80;;
32912;SDS011;19266;45.580;-122.680;2022-08-19T13:49:32;4.25;;;2.60;;
32912;SDS011;19266;45.580;-122.680;2022-08-19T13:52:01;3.20;;;2.67;;
32912;SDS011;19266;45.580;-122.680;2022-08-19T13:54:30;5.53;;;2.75;;
32912;SDS011;19266;45.580;-122.680;2022-08-19T13:57:00;2.62;;;2.30;;
32912;SDS011;19266;45.580;-122.680;2022-08-19T13:59:29;6.00;;;2.98;;
32912;SDS011;19266;45.580;-122.680;2022-08-19T14:01:58;4.55;;;2.87;;
32912;SDS011;19266;45.580;-122.680;2022-08-19T14:04:27;3.95;;;2.80;;
32912;SDS011;19266;45.580;-122.680;2022-08-19T14:06:56;5.05;;;2.60;;
32912;SDS011;19266;45.580;-122.680;2022-08-19T14:09:25;2.60;;;2.40;;
32912;SDS011;19266;45.580;-122.680;2022-08-19T14:11:55;3.30;;;2.67;;
32912;SDS011;19266;45.580;-122.680;2022-08-19T14:14:24;3.80;;;2.62;;
32912;SDS011;19266;45.580;-122.680;2022-08-19T14:16:53;7.72;;;2.75;;
32912;SDS011;19266;45.580;-122.680;2022-08-19T14:19:22;3.47;;;2.72;;